sensor_id;sensor_type;location;lat;lon;timestamp;pressure;altitude;pressure_sealevel;temperature;humidity
44079;BME280;29744;49.078;12.878;2023-05-24T00:00:52;96520.47;;;17.23;40.51
44079;BME280;29744;49.078;12.878;2023-05-24T00:05:54;96516.97;;;17.22;40.58
44079;BME280;29744;49.078;12.878;2023-05-24T00:10:55;96510.75;;;17.22;40.25
44079;BME280;29744;49.078;12.878;2023-05-24T00:15:56;96516.63;;;17.24;40.58
44079;BME280;29744;49.078;12.878;2023-05-24T00:20:57;96508.81;;;17.22;40.59
44079;BME280;29744;49.078;12.878;2023-05-24T00:25:58;96509.63;;;17.23;40.50
44079;BME280;29744;49.078;12.878;2023-05-24T00:30:58;96508.81;;;17.22;40.61
44079;BME280;29744;49.078;12.878;2023-05-24T00:35:59;96509.16;;;17.21;40.34
44079;BME280;29744;49.078;12.878;2023-05-24T00:40:59;96499.56;;;17.23;40.76
44079;BME280;29744;49.078;12.878;2023-05-24T00:46:13;96502.63;;;17.22;40.58
44079;BME280;29744;49.078;12.878;2023-05-24T00:51:14;96496.84;;;17.23;40.20
44079;BME280;29744;49.078;12.878;2023-05-24T00:56:15;96502.28;;;17.23;40.59
44079;BME280;29744;49.078;12.878;2023-05-24T01:01:16;96499.13;;;17.21;40.75
44079;BME280;29744;49.078;12.878;2023-05-24T01:06:17;96493.69;;;17.21;40.70
44079;BME280;29744;49.078;12.878;2023-05-24T01:22:25;96495.50;;;17.17;40.29
44079;BME280;29744;49.078;12.878;2023-05-24T01:27:27;96495.16;;;17.19;40.67
44079;BME280;29744;49.078;12.878;2023-05-24T01:32:29;96493.25;;;17.19;40.34
44079;BME280;29744;49.078;12.878;2023-05-24T01:37:30;96487.81;;;17.19;40.45
44079;BME280;29744;49.078;12.878;2023-05-24T01:47:57;96488.16;;;17.18;40.16
44079;BME280;29744;49.078;12.878;2023-05-24T01:53:07;96486.25;;;17.18;40.61
44079;BME280;29744;49.078;12.878;2023-05-24T01:58:08;96493.59;;;17.18;40.13
44079;BME280;29744;49.078;12.878;2023-05-24T02:03:13;96495.16;;;17.19;40.62
44079;BME280;29744;49.078;12.878;2023-05-24T02:08:13;96491.66;;;17.18;40.45
44079;BME280;29744;49.078;12.878;2023-05-24T02:13:13;96490.53;;;17.19;40.15
44079;BME280;29744;49.078;12.878;2023-05-24T02:18:17;96493.59;;;17.18;40.57
44079;BME280;29744;49.078;12.878;2023-05-24T02:23:17;96494.38;;;17.18;40.27
44079;BME280;29744;49.078;12.878;2023-05-24T02:28:18;96492.00;;;17.17;40.38
44079;BME280;29744;49.078;12.878;2023-05-24T02:33:18;96494.72;;;17.17;40.44
44079;BME280;29744;49.078;12.878;2023-05-24T02:38:18;96510.97;;;17.17;40.04
44079;BME280;29744;49.078;12.878;2023-05-24T02:43:18;96505.22;;;17.18;40.43
44079;BME280;29744;49.078;12.878;2023-05-24T02:48:19;96502.50;;;17.18;40.24
44079;BME280;29744;49.078;12.878;2023-05-24T02:53:19;96511.75;;;17.17;40.57
44079;BME280;29744;49.078;12.878;2023-05-24T02:58:20;96510.97;;;17.17;40.58
44079;BME280;29744;49.078;12.878;2023-05-24T03:03:21;96514.47;;;17.17;40.20
44079;BME280;29744;49.078;12.878;2023-05-24T03:08:21;96510.97;;;17.17;40.23
44079;BME280;29744;49.078;12.878;2023-05-24T03:13:21;96511.75;;;17.17;40.04
44079;BME280;29744;49.078;12.878;2023-05-24T03:18:21;96519.09;;;17.17;39.96
44079;BME280;29744;49.078;12.878;2023-05-24T03:23:22;96524.84;;;17.15;40.02
44079;BME280;29744;49.078;12.878;2023-05-24T03:28:22;96531.84;;;17.16;39.98
44079;BME280;29744;49.078;12.878;2023-05-24T03:33:22;96533.78;;;17.16;40.41
44079;BME280;29744;49.078;12.878;2023-05-24T03:38:23;96531.06;;;17.16;40.25
44079;BME280;29744;49.078;12.878;2023-05-24T03:43:23;96522.16;;;17.15;40.42
44079;BME280;29744;49.078;12.878;2023-05-24T03:48:23;96527.56;;;17.15;39.93
44079;BME280;29744;49.078;12.878;2023-05-24T03:53:24;96533.00;;;17.15;40.45
44079;BME280;29744;49.078;12.878;2023-05-24T03:58:24;96534.56;;;17.16;40.21
44079;BME280;29744;49.078;12.878;2023-05-24T04:03:25;96544.63;;;17.16;40.15
44079;BME280;29744;49.078;12.878;2023-05-24T04:08:25;96539.19;;;17.16;40.07
44079;BME280;29744;49.078;12.878;2023-05-24T04:13:25;96531.84;;;17.16;40.35
44079;BME280;29744;49.078;12.878;2023-05-24T04:18:25;96529.94;;;17.17;40.18
44079;BME280;29744;49.078;12.878;2023-05-24T04:23:26;96534.56;;;17.16;39.91
44079;BME280;29744;49.078;12.878;2023-05-24T04:28:26;96524.53;;;17.17;40.04
44079;BME280;29744;49.078;12.878;2023-05-24T04:33:26;96532.66;;;17.17;40.16
44079;BME280;29744;49.078;12.878;2023-05-24T04:38:27;96530.72;;;17.17;40.41
44079;BME280;29744;49.078;12.878;2023-05-24T04:43:37;96536.94;;;17.18;39.95
44079;BME280;29744;49.078;12.878;2023-05-24T04:48:38;96535.03;;;17.18;39.95
44079;BME280;29744;49.078;12.878;2023-05-24T04:53:38;96533.91;;;17.19;39.86
44079;BME280;29744;49.078;12.878;2023-05-24T04:58:38;96531.97;;;17.20;39.95
44079;BME280;29744;49.078;12.878;2023-05-24T05:03:38;96532.75;;;17.20;39.94
44079;BME280;29744;49.078;12.878;2023-05-24T05:08:39;96532.75;;;17.20;39.95
44079;BME280;29744;49.078;12.878;2023-05-24T05:13:39;96535.13;;;17.22;39.98
44079;BME280;29744;49.078;12.878;2023-05-24T05:18:39;96542.13;;;17.23;40.14
44079;BME280;29744;49.078;12.878;2023-05-24T05:23:40;96527.78;;;17.22;40.11
44079;BME280;29744;49.078;12.878;2023-05-24T05:28:40;96527.78;;;17.22;39.93
44079;BME280;29744;49.078;12.878;2023-05-24T05:33:40;96529.38;;;17.23;40.15
44079;BME280;29744;49.078;12.878;2023-05-24T05:38:41;96534.81;;;17.23;40.09
44079;BME280;29744;49.078;12.878;2023-05-24T05:43:41;96537.16;;;17.25;39.27
44079;BME280;29744;49.078;12.878;2023-05-24T05:48:42;96530.97;;;17.24;39.21
44079;BME280;29744;49.078;12.878;2023-05-24T05:53:42;96530.50;;;17.22;39.25
44079;BME280;29744;49.078;12.878;2023-05-24T05:58:42;96533.56;;;17.21;38.82
44079;BME280;29744;49.078;12.878;2023-05-24T06:03:43;96530.50;;;17.22;39.32
44079;BME280;29744;49.078;12.878;2023-05-24T06:08:43;96535.94;;;17.22;39.06
44079;BME280;29744;49.078;12.878;2023-05-24T06:13:43;96539.09;;;17.24;39.22
44079;BME280;29744;49.078;12.878;2023-05-24T06:18:44;96539.09;;;17.24;39.25
44079;BME280;29744;49.078;12.878;2023-05-24T06:23:44;96545.00;;;17.26;39.40
44079;BME280;29744;49.078;12.878;2023-05-24T06:28:45;96547.72;;;17.26;39.11
44079;BME280;29744;49.078;12.878;2023-05-24T06:33:45;96543.06;;;17.27;38.84
44079;BME280;29744;49.078;12.878;2023-05-24T06:38:45;96551.31;;;17.30;39.18
44079;BME280;29744;49.078;12.878;2023-05-24T06:43:45;96544.31;;;17.29;39.16
44079;BME280;29744;49.078;12.878;2023-05-24T06:48:46;96550.19;;;17.31;38.88
44079;BME280;29744;49.078;12.878;2023-05-24T06:53:46;96552.91;;;17.31;38.98
44079;BME280;29744;49.078;12.878;2023-05-24T06:58:46;96550.19;;;17.31;39.27
44079;BME280;29744;49.078;12.878;2023-05-24T07:03:47;96552.56;;;17.33;39.08
44079;BME280;29744;49.078;12.878;2023-05-24T07:08:47;96551.78;;;17.32;39.02
44079;BME280;29744;49.078;12.878;2023-05-24T07:13:47;96558.44;;;17.35;38.91
44079;BME280;29744;49.078;12.878;2023-05-24T07:18:48;96563.06;;;17.34;39.11
44079;BME280;29744;49.078;12.878;2023-05-24T07:23:49;96562.72;;;17.36;38.95
44079;BME280;29744;49.078;12.878;2023-05-24T07:28:50;96566.22;;;17.36;39.19
44079;BME280;29744;49.078;12.878;2023-05-24T07:33:50;96569.72;;;17.37;39.22
44079;BME280;29744;49.078;12.878;2023-05-24T07:38:50;96567.81;;;17.38;38.99
44079;BME280;29744;49.078;12.878;2023-05-24T07:43:51;96574.03;;;17.38;39.47
44079;BME280;29744;49.078;12.878;2023-05-24T07:48:51;96578.31;;;17.39;38.89
44079;BME280;29744;49.078;12.878;2023-05-24T07:53:52;96570.97;;;17.40;39.24
44079;BME280;29744;49.078;12.878;2023-05-24T07:58:52;96572.56;;;17.41;38.95
44079;BME280;29744;49.078;12.878;2023-05-24T08:03:58;96575.59;;;17.39;38.89
44079;BME280;29744;49.078;12.878;2023-05-24T08:08:58;96575.16;;;17.37;38.28
44079;BME280;29744;49.078;12.878;2023-05-24T08:13:58;96580.13;;;17.35;37.46
44079;BME280;29744;49.078;12.878;2023-05-24T08:18:59;96572.22;;;17.30;37.22
44079;BME280;29744;49.078;12.878;2023-05-24T08:23:59;96581.81;;;17.27;37.01
44079;BME280;29744;49.078;12.878;2023-05-24T08:29:00;96581.66;;;17.24;36.90
44079;BME280;29744;49.078;12.878;2023-05-24T08:34:00;96586.63;;;17.22;36.90
44079;BME280;29744;49.078;12.878;2023-05-24T08:39:01;96588.56;;;17.21;37.32
44079;BME280;29744;49.078;12.878;2023-05-24T08:44:04;96582.34;;;17.21;37.63
44079;BME280;29744;49.078;12.878;2023-05-24T08:49:05;96583.59;;;17.23;37.62
44079;BME280;29744;49.078;12.878;2023-05-24T08:54:09;96595.66;;;17.26;37.71
44079;BME280;29744;49.078;12.878;2023-05-24T08:59:11;96600.00;;;17.27;37.88
44079;BME280;29744;49.078;12.878;2023-05-24T09:04:13;96596.28;;;17.31;37.90
44079;BME280;29744;49.078;12.878;2023-05-24T09:09:17;96597.84;;;17.32;37.53
44079;BME280;29744;49.078;12.878;2023-05-24T09:14:18;96592.88;;;17.34;37.70
44079;BME280;29744;49.078;12.878;2023-05-24T09:19:19;96600.34;;;17.38;37.84
44079;BME280;29744;49.078;12.878;2023-05-24T09:24:22;96598.09;;;17.40;38.14
44079;BME280;29744;49.078;12.878;2023-05-24T09:29:22;96602.03;;;17.42;38.28
44079;BME280;29744;49.078;12.878;2023-05-24T09:34:23;96607.91;;;17.44;38.30
44079;BME280;29744;49.078;12.878;2023-05-24T09:39:24;96594.34;;;17.44;38.52
44079;BME280;29744;49.078;12.878;2023-05-24T09:44:25;96607.25;;;17.47;38.46
44079;BME280;29744;49.078;12.878;2023-05-24T09:49:27;96609.59;;;17.49;38.56
44079;BME280;29744;49.078;12.878;2023-05-24T09:54:27;96602.25;;;17.49;38.44
44079;BME280;29744;49.078;12.878;2023-05-24T09:59:31;96601.94;;;17.51;38.30
44079;BME280;29744;49.078;12.878;2023-05-24T10:04:32;96604.63;;;17.51;38.61
44079;BME280;29744;49.078;12.878;2023-05-24T10:09:34;96607.00;;;17.52;38.65
44079;BME280;29744;49.078;12.878;2023-05-24T10:14:36;96617.84;;;17.52;38.78
44079;BME280;29744;49.078;12.878;2023-05-24T10:19:37;96614.03;;;17.53;38.79
44079;BME280;29744;49.078;12.878;2023-05-24T10:24:46;96613.22;;;17.53;38.43
44079;BME280;29744;49.078;12.878;2023-05-24T10:35:12;96610.50;;;17.53;38.95
44079;BME280;29744;49.078;12.878;2023-05-24T10:40:21;96629.50;;;17.53;38.67
44079;BME280;29744;49.078;12.878;2023-05-24T10:50:24;96631.41;;;17.52;38.22
44079;BME280;29744;49.078;12.878;2023-05-24T10:55:24;96629.03;;;17.51;37.88
44079;BME280;29744;49.078;12.878;2023-05-24T11:00:25;96635.47;;;17.46;37.23
44079;BME280;29744;49.078;12.878;2023-05-24T11:05:34;96631.53;;;17.44;36.87
44079;BME280;29744;49.078;12.878;2023-05-24T11:10:35;96634.13;;;17.40;37.06
44079;BME280;29744;49.078;12.878;2023-05-24T11:15:36;96624.75;;;17.38;36.96
44079;BME280;29744;49.078;12.878;2023-05-24T11:20:36;96623.16;;;17.36;37.00
44079;BME280;29744;49.078;12.878;2023-05-24T11:25:37;96630.84;;;17.34;36.52
44079;BME280;29744;49.078;12.878;2023-05-24T11:30:42;96626.53;;;17.33;36.50
44079;BME280;29744;49.078;12.878;2023-05-24T11:35:43;96627.66;;;17.32;36.87
44079;BME280;29744;49.078;12.878;2023-05-24T11:40:45;96630.03;;;17.34;36.92
44079;BME280;29744;49.078;12.878;2023-05-24T11:45:50;96625.41;;;17.34;37.20
44079;BME280;29744;49.078;12.878;2023-05-24T11:50:51;96613.44;;;17.35;37.57
44079;BME280;29744;49.078;12.878;2023-05-24T11:55:54;96603.06;;;17.38;37.12
44079;BME280;29744;49.078;12.878;2023-05-24T12:00:54;96613.56;;;17.39;37.77
44079;BME280;29744;49.078;12.878;2023-05-24T12:05:56;96614.00;;;17.41;37.79
44079;BME280;29744;49.078;12.878;2023-05-24T12:10:56;96613.66;;;17.43;37.88
44079;BME280;29744;49.078;12.878;2023-05-24T12:15:58;96623.38;;;17.44;37.67
44079;BME280;29744;49.078;12.878;2023-05-24T12:20:58;96628.47;;;17.45;37.59
44079;BME280;29744;49.078;12.878;2023-05-24T12:26:00;96611.41;;;17.45;38.06
44079;BME280;29744;49.078;12.878;2023-05-24T12:31:02;96597.53;;;17.46;37.73
44079;BME280;29744;49.078;12.878;2023-05-24T12:36:03;96595.94;;;17.45;37.79
44079;BME280;29744;49.078;12.878;2023-05-24T12:41:04;96596.72;;;17.46;37.15
44079;BME280;29744;49.078;12.878;2023-05-24T12:46:05;96594.00;;;17.46;37.61
44079;BME280;29744;49.078;12.878;2023-05-24T12:51:05;96591.31;;;17.46;37.63
44079;BME280;29744;49.078;12.878;2023-05-24T12:56:07;96590.50;;;17.45;37.39
44079;BME280;29744;49.078;12.878;2023-05-24T13:01:07;96581.94;;;17.43;37.34
44079;BME280;29744;49.078;12.878;2023-05-24T13:06:08;96593.56;;;17.44;37.54
44079;BME280;29744;49.078;12.878;2023-05-24T13:11:08;96581.13;;;17.43;37.79
44079;BME280;29744;49.078;12.878;2023-05-24T13:16:08;96584.63;;;17.43;37.69
44079;BME280;29744;49.078;12.878;2023-05-24T13:21:09;96581.13;;;17.43;37.82
44079;BME280;29744;49.078;12.878;2023-05-24T13:26:10;96583.06;;;17.42;37.78
44079;BME280;29744;49.078;12.878;2023-05-24T13:31:12;96583.84;;;17.43;38.40
44079;BME280;29744;49.078;12.878;2023-05-24T13:36:13;96581.13;;;17.43;38.12
44079;BME280;29744;49.078;12.878;2023-05-24T13:41:13;96577.28;;;17.44;38.20
44079;BME280;29744;49.078;12.878;2023-05-24T13:46:14;96569.97;;;17.44;38.06
44079;BME280;29744;49.078;12.878;2023-05-24T13:51:14;96565.66;;;17.43;38.31
44079;BME280;29744;49.078;12.878;2023-05-24T13:56:17;96573.47;;;17.45;38.07
44079;BME280;29744;49.078;12.878;2023-05-24T14:01:18;96569.63;;;17.46;38.44
44079;BME280;29744;49.078;12.878;2023-05-24T14:06:19;96564.19;;;17.46;38.33
44079;BME280;29744;49.078;12.878;2023-05-24T14:11:20;96560.69;;;17.45;38.25
44079;BME280;29744;49.078;12.878;2023-05-24T14:16:21;96566.91;;;17.46;38.53
44079;BME280;29744;49.078;12.878;2023-05-24T14:21:22;96572.00;;;17.47;38.72
44079;BME280;29744;49.078;12.878;2023-05-24T14:26:24;96570.84;;;17.48;38.21
44079;BME280;29744;49.078;12.878;2023-05-24T14:31:26;96572.78;;;17.48;37.85
44079;BME280;29744;49.078;12.878;2023-05-24T14:36:26;96565.78;;;17.47;37.67
44079;BME280;29744;49.078;12.878;2023-05-24T14:41:26;96564.97;;;17.46;37.33
44079;BME280;29744;49.078;12.878;2023-05-24T14:46:27;96571.53;;;17.45;37.26
44079;BME280;29744;49.078;12.878;2023-05-24T14:51:28;96573.47;;;17.45;37.43
44079;BME280;29744;49.078;12.878;2023-05-24T14:56:28;96569.16;;;17.44;37.49
44079;BME280;29744;49.078;12.878;2023-05-24T15:01:28;96572.22;;;17.42;37.89
44079;BME280;29744;49.078;12.878;2023-05-24T15:06:29;96564.88;;;17.43;37.60
44079;BME280;29744;49.078;12.878;2023-05-24T15:11:33;96566.44;;;17.44;37.61
44079;BME280;29744;49.078;12.878;2023-05-24T15:16:34;96568.81;;;17.45;38.03
44079;BME280;29744;49.078;12.878;2023-05-24T15:21:35;96559.91;;;17.45;37.81
44079;BME280;29744;49.078;12.878;2023-05-24T15:26:38;96565.31;;;17.45;37.68
44079;BME280;29744;49.078;12.878;2023-05-24T15:31:39;96565.78;;;17.47;37.77
44079;BME280;29744;49.078;12.878;2023-05-24T15:36:39;96566.56;;;17.47;38.00
44079;BME280;29744;49.078;12.878;2023-05-24T15:41:40;96567.34;;;17.48;38.17
44079;BME280;29744;49.078;12.878;2023-05-24T15:46:40;96567.34;;;17.48;38.45
44079;BME280;29744;49.078;12.878;2023-05-24T15:51:41;96572.00;;;17.47;38.11
44079;BME280;29744;49.078;12.878;2023-05-24T15:56:41;96565.78;;;17.47;38.38
44079;BME280;29744;49.078;12.878;2023-05-24T16:01:41;96567.69;;;17.46;38.42
44079;BME280;29744;49.078;12.878;2023-05-24T16:06:42;96558.78;;;17.46;38.27
44079;BME280;29744;49.078;12.878;2023-05-24T16:11:42;96555.72;;;17.47;38.56
44079;BME280;29744;49.078;12.878;2023-05-24T16:16:43;96560.81;;;17.49;38.45
44079;BME280;29744;49.078;12.878;2023-05-24T16:21:43;96560.81;;;17.49;38.52
44079;BME280;29744;49.078;12.878;2023-05-24T16:26:43;96556.16;;;17.49;38.15
44079;BME280;29744;49.078;12.878;2023-05-24T16:31:44;96568.59;;;17.50;38.69
44079;BME280;29744;49.078;12.878;2023-05-24T16:36:44;96565.09;;;17.50;38.70
44079;BME280;29744;49.078;12.878;2023-05-24T16:41:46;96557.75;;;17.50;38.56
44079;BME280;29744;49.078;12.878;2023-05-24T16:46:46;96567.81;;;17.50;38.24
44079;BME280;29744;49.078;12.878;2023-05-24T16:51:46;96571.31;;;17.50;38.75
44079;BME280;29744;49.078;12.878;2023-05-24T16:56:46;96581.38;;;17.50;38.61
44079;BME280;29744;49.078;12.878;2023-05-24T17:01:47;96579.78;;;17.49;38.44
44079;BME280;29744;49.078;12.878;2023-05-24T17:06:49;96579.78;;;17.49;38.36
44079;BME280;29744;49.078;12.878;2023-05-24T17:11:49;96578.19;;;17.48;38.43
44079;BME280;29744;49.078;12.878;2023-05-24T17:16:50;96589.84;;;17.48;38.16
44079;BME280;29744;49.078;12.878;2023-05-24T17:21:50;96582.03;;;17.47;38.16
44079;BME280;29744;49.078;12.878;2023-05-24T17:26:50;96590.50;;;17.45;38.14
44079;BME280;29744;49.078;12.878;2023-05-24T17:31:50;96594.00;;;17.46;38.52
44079;BME280;29744;49.078;12.878;2023-05-24T17:36:51;96597.84;;;17.45;38.34
44079;BME280;29744;49.078;12.878;2023-05-24T17:41:51;96599.78;;;17.44;38.06
44079;BME280;29744;49.078;12.878;2023-05-24T17:46:51;96602.50;;;17.44;38.33
44079;BME280;29744;49.078;12.878;2023-05-24T17:51:52;96601.25;;;17.42;38.20
44079;BME280;29744;49.078;12.878;2023-05-24T17:56:52;96605.88;;;17.41;38.26
44079;BME280;29744;49.078;12.878;2023-05-24T18:01:53;96610.50;;;17.41;38.51
44079;BME280;29744;49.078;12.878;2023-05-24T18:06:53;96620.91;;;17.39;38.67
44079;BME280;29744;49.078;12.878;2023-05-24T18:11:54;96618.19;;;17.39;38.62
44079;BME280;29744;49.078;12.878;2023-05-24T18:16:54;96622.81;;;17.38;38.92
44079;BME280;29744;49.078;12.878;2023-05-24T18:21:54;96618.53;;;17.37;38.64
44079;BME280;29744;49.078;12.878;2023-05-24T18:26:55;96632.06;;;17.37;38.77
44079;BME280;29744;49.078;12.878;2023-05-24T18:31:55;96630.84;;;17.34;38.65
44079;BME280;29744;49.078;12.878;2023-05-24T18:36:55;96640.56;;;17.35;38.64
44079;BME280;29744;49.078;12.878;2023-05-24T18:41:56;96648.22;;;17.33;38.71
44079;BME280;29744;49.078;12.878;2023-05-24T18:46:59;96649.81;;;17.34;39.10
44079;BME280;29744;49.078;12.878;2023-05-24T18:52:00;96653.66;;;17.33;38.67
44079;BME280;29744;49.078;12.878;2023-05-24T18:57:01;96666.41;;;17.33;38.76
44079;BME280;29744;49.078;12.878;2023-05-24T19:02:03;96671.84;;;17.33;39.07
44079;BME280;29744;49.078;12.878;2023-05-24T19:07:05;96670.25;;;17.32;38.56
44079;BME280;29744;49.078;12.878;2023-05-24T19:12:05;96680.28;;;17.31;39.10
44079;BME280;29744;49.078;12.878;2023-05-24T19:17:06;96687.63;;;17.31;39.02
44079;BME280;29744;49.078;12.878;2023-05-24T19:22:06;96682.56;;;17.29;38.85
44079;BME280;29744;49.078;12.878;2023-05-24T19:27:06;96694.19;;;17.30;38.99
44079;BME280;29744;49.078;12.878;2023-05-24T19:32:07;96706.16;;;17.29;38.87
44079;BME280;29744;49.078;12.878;2023-05-24T19:37:08;96713.50;;;17.28;38.91
44079;BME280;29744;49.078;12.878;2023-05-24T19:42:10;96718.13;;;17.28;38.96
44079;BME280;29744;49.078;12.878;2023-05-24T19:47:10;96720.03;;;17.27;39.04
44079;BME280;29744;49.078;12.878;2023-05-24T19:52:11;96721.97;;;17.27;38.98
44079;BME280;29744;49.078;12.878;2023-05-24T19:57:13;96721.97;;;17.27;39.17
44079;BME280;29744;49.078;12.878;2023-05-24T20:02:13;96725.75;;;17.26;39.24
44079;BME280;29744;49.078;12.878;2023-05-24T20:07:13;96728.47;;;17.26;39.13
44079;BME280;29744;49.078;12.878;2023-05-24T20:12:14;96722.59;;;17.24;38.76
44079;BME280;29744;49.078;12.878;2023-05-24T20:17:14;96728.81;;;17.24;38.99
44079;BME280;29744;49.078;12.878;2023-05-24T20:22:14;96738.88;;;17.24;38.94
44079;BME280;29744;49.078;12.878;2023-05-24T20:27:15;96738.06;;;17.23;39.12
44079;BME280;29744;49.078;12.878;2023-05-24T20:32:16;96741.56;;;17.24;38.95
44079;BME280;29744;49.078;12.878;2023-05-24T20:37:16;96743.81;;;17.22;39.28
44079;BME280;29744;49.078;12.878;2023-05-24T20:42:16;96750.03;;;17.22;39.35
44079;BME280;29744;49.078;12.878;2023-05-24T20:47:17;96752.75;;;17.22;39.12
44079;BME280;29744;49.078;12.878;2023-05-24T20:52:18;96741.13;;;17.22;39.00
44079;BME280;29744;49.078;12.878;2023-05-24T20:57:18;96747.31;;;17.22;38.99
44079;BME280;29744;49.078;12.878;2023-05-24T21:02:18;96743.03;;;17.21;38.87
44079;BME280;29744;49.078;12.878;2023-05-24T21:07:19;96743.03;;;17.21;39.13
44079;BME280;29744;49.078;12.878;2023-05-24T21:12:19;96755.00;;;17.20;38.77
44079;BME280;29744;49.078;12.878;2023-05-24T21:17:19;96768.53;;;17.20;38.78
44079;BME280;29744;49.078;12.878;2023-05-24T21:22:20;96771.25;;;17.20;38.71
44079;BME280;29744;49.078;12.878;2023-05-24T21:27:20;96768.53;;;17.20;39.13
44079;BME280;29744;49.078;12.878;2023-05-24T21:32:20;96775.09;;;17.19;38.95
44079;BME280;29744;49.078;12.878;2023-05-24T21:37:21;96775.09;;;17.19;38.97
44079;BME280;29744;49.078;12.878;2023-05-24T21:42:21;96778.94;;;17.18;39.04
44079;BME280;29744;49.078;12.878;2023-05-24T21:47:21;96782.44;;;17.19;38.63
44079;BME280;29744;49.078;12.878;2023-05-24T21:52:22;96789.78;;;17.18;38.69
44079;BME280;29744;49.078;12.878;2023-05-24T21:57:22;96792.47;;;17.18;38.69
44079;BME280;29744;49.078;12.878;2023-05-24T22:02:24;96793.59;;;17.17;38.95
44079;BME280;29744;49.078;12.878;2023-05-24T22:07:25;96795.53;;;17.17;39.19
44079;BME280;29744;49.078;12.878;2023-05-24T22:12:25;96792.81;;;17.17;38.93
44079;BME280;29744;49.078;12.878;2023-05-24T22:17:26;96800.94;;;17.17;38.93
44079;BME280;29744;49.078;12.878;2023-05-24T22:22:28;96806.38;;;17.17;38.93
44079;BME280;29744;49.078;12.878;2023-05-24T22:27:28;96806.69;;;17.15;39.10
44079;BME280;29744;49.078;12.878;2023-05-24T22:32:29;96812.91;;;17.16;39.00
44079;BME280;29744;49.078;12.878;2023-05-24T22:37:29;96812.13;;;17.15;38.97
44079;BME280;29744;49.078;12.878;2023-05-24T22:42:30;96816.41;;;17.16;39.22
44079;BME280;29744;49.078;12.878;2023-05-24T22:47:31;96812.13;;;17.15;38.67
44079;BME280;29744;49.078;12.878;2023-05-24T22:52:32;96809.41;;;17.15;39.01
44079;BME280;29744;49.078;12.878;2023-05-24T22:57:35;96814.81;;;17.15;38.92
44079;BME280;29744;49.078;12.878;2023-05-24T23:02:35;96809.41;;;17.15;39.32
44079;BME280;29744;49.078;12.878;2023-05-24T23:07:35;96807.81;;;17.14;38.59
44079;BME280;29744;49.078;12.878;2023-05-24T23:12:37;96807.81;;;17.14;38.66
44079;BME280;29744;49.078;12.878;2023-05-24T23:17:41;96810.53;;;17.14;38.85
44079;BME280;29744;49.078;12.878;2023-05-24T23:22:41;96808.59;;;17.15;38.63
44079;BME280;29744;49.078;12.878;2023-05-24T23:27:42;96817.06;;;17.13;38.78
44079;BME280;29744;49.078;12.878;2023-05-24T23:32:42;96817.06;;;17.13;38.53
44079;BME280;29744;49.078;12.878;2023-05-24T23:37:42;96820.56;;;17.14;38.94
44079;BME280;29744;49.078;12.878;2023-05-24T23:42:42;96817.06;;;17.13;39.07
44079;BME280;29744;49.078;12.878;2023-05-24T23:47:43;96822.50;;;17.13;38.62
44079;BME280;29744;49.078;12.878;2023-05-24T23:52:44;96819.78;;;17.13;38.84
44079;BME280;29744;49.078;12.878;2023-05-24T23:57:44;96817.06;;;17.13;39.13
